createdAt,value
2023-06-20T00:00:45.541Z,29.38
2023-06-20T00:01:44.993Z,29.38
2023-06-20T00:02:45.087Z,29.38
2023-06-20T00:03:45.124Z,29.38
2023-06-20T00:04:45.165Z,29.38
2023-06-20T00:05:45.244Z,29.36
2023-06-20T00:06:45.260Z,29.36
2023-06-20T00:07:45.315Z,29.38
2023-06-20T00:08:45.381Z,29.38
2023-06-20T00:09:45.409Z,29.36
2023-06-20T00:10:45.480Z,29.33
2023-06-20T00:11:45.570Z,29.36
2023-06-20T00:12:45.566Z,29.36
2023-06-20T00:13:45.665Z,29.35
2023-06-20T00:14:45.702Z,29.35
2023-06-20T00:15:45.736Z,29.35
2023-06-20T00:16:45.802Z,29.33
2023-06-20T00:17:45.870Z,29.33
2023-06-20T00:18:46.045Z,29.32
2023-06-20T00:19:45.951Z,29.35
2023-06-20T00:20:46.014Z,29.36
2023-06-20T00:21:46.061Z,29.35
2023-06-20T00:22:46.114Z,29.33
2023-06-20T00:23:46.180Z,29.33
2023-06-20T00:24:46.308Z,29.35
2023-06-20T00:25:46.285Z,29.29
2023-06-20T00:26:46.348Z,29.32
2023-06-20T00:27:46.409Z,29.35
2023-06-20T00:28:46.455Z,29.32
2023-06-20T00:29:46.536Z,29.31
2023-06-20T00:30:46.571Z,29.32
2023-06-20T00:31:46.624Z,29.31
2023-06-20T00:32:46.720Z,29.31
2023-06-20T00:33:46.776Z,29.31
2023-06-20T00:34:46.834Z,29.31
2023-06-20T00:35:46.856Z,29.28
2023-06-20T00:36:46.904Z,29.29
2023-06-20T00:37:46.961Z,29.29
2023-06-20T00:38:47.032Z,29.28
2023-06-20T00:39:47.105Z,29.29
2023-06-20T00:40:47.127Z,29.29
2023-06-20T00:41:47.179Z,29.28
2023-06-20T00:42:47.250Z,29.28
2023-06-20T00:43:47.335Z,29.28
2023-06-20T00:44:47.358Z,29.28
2023-06-20T00:45:47.492Z,29.28
2023-06-20T00:46:47.553Z,29.28
2023-06-20T00:47:47.592Z,29.28
2023-06-20T00:48:47.642Z,29.29
2023-06-20T00:49:47.671Z,29.26
2023-06-20T00:50:47.733Z,29.25
2023-06-20T00:51:47.786Z,29.25
2023-06-20T00:52:47.859Z,29.25
2023-06-20T00:53:47.919Z,29.25
2023-06-20T00:54:47.946Z,29.26
2023-06-20T00:55:48.027Z,29.26
2023-06-20T00:56:48.046Z,29.26
2023-06-20T00:57:48.098Z,29.25
2023-06-20T00:58:48.191Z,29.25
2023-06-20T00:59:48.216Z,29.26
2023-06-20T01:00:48.286Z,29.25
2023-06-20T01:01:48.411Z,29.24
2023-06-20T01:02:48.561Z,29.25
2023-06-20T01:03:48.743Z,29.25
2023-06-20T01:04:48.544Z,29.24
2023-06-20T01:05:48.610Z,29.24
2023-06-20T01:06:48.674Z,29.24
2023-06-20T01:07:48.706Z,29.24
2023-06-20T01:08:48.791Z,29.24
2023-06-20T01:09:48.854Z,29.24
2023-06-20T01:10:48.927Z,29.24
2023-06-20T01:11:48.943Z,29.24
2023-06-20T01:12:49.001Z,29.22
2023-06-20T01:13:49.097Z,29.21
2023-06-20T01:14:49.163Z,29.24
2023-06-20T01:15:49.237Z,29.22
2023-06-20T01:16:49.263Z,29.21
2023-06-20T01:17:49.385Z,29.20
2023-06-20T01:18:49.459Z,29.20
2023-06-20T01:19:49.505Z,29.21
2023-06-20T01:20:49.524Z,29.21
2023-06-20T01:21:49.597Z,29.20
2023-06-20T01:22:49.633Z,29.20
2023-06-20T01:23:49.705Z,29.20
2023-06-20T01:24:49.786Z,29.20
2023-06-20T01:25:49.855Z,29.18
2023-06-20T01:26:49.910Z,29.18
2023-06-20T01:27:49.986Z,29.20
2023-06-20T01:28:50.022Z,29.20
2023-06-20T01:29:50.103Z,29.20
2023-06-20T01:30:50.153Z,29.18
2023-06-20T01:31:50.210Z,29.17
2023-06-20T01:32:50.336Z,29.18
2023-06-20T01:33:50.372Z,29.17
2023-06-20T01:34:50.372Z,29.17
2023-06-20T01:35:50.423Z,29.18
2023-06-20T01:36:50.494Z,29.18
2023-06-20T01:37:50.539Z,29.18
2023-06-20T01:38:50.591Z,29.17
2023-06-20T01:39:50.636Z,29.17
2023-06-20T01:40:50.699Z,29.15
2023-06-20T01:41:50.755Z,29.18
2023-06-20T01:42:50.811Z,29.17
2023-06-20T01:43:50.864Z,29.15
2023-06-20T01:44:50.917Z,29.15
2023-06-20T01:45:50.936Z,29.15
2023-06-20T01:46:51.050Z,29.14
2023-06-20T01:47:51.085Z,29.15
2023-06-20T01:48:51.162Z,29.14
2023-06-20T01:49:51.173Z,29.12
2023-06-20T01:50:51.219Z,29.12
2023-06-20T01:51:51.291Z,29.14
2023-06-20T01:52:51.357Z,29.12
2023-06-20T01:53:51.353Z,29.12
2023-06-20T01:54:51.394Z,29.14
2023-06-20T01:55:51.497Z,29.14
2023-06-20T01:56:51.513Z,29.10
2023-06-20T01:57:51.525Z,29.12
2023-06-20T01:58:51.584Z,29.12
2023-06-20T01:59:51.723Z,29.14
2023-06-20T02:00:51.691Z,29.12
2023-06-20T02:01:51.752Z,29.12
2023-06-20T02:02:51.857Z,29.11
2023-06-20T02:03:51.945Z,29.10
2023-06-20T02:04:51.906Z,29.11
2023-06-20T02:05:51.928Z,29.11
2023-06-20T02:06:51.960Z,29.11
2023-06-20T02:07:52.021Z,29.10
2023-06-20T02:08:52.114Z,29.10
2023-06-20T02:09:52.121Z,29.08
2023-06-20T02:10:52.164Z,29.08
2023-06-20T02:11:52.159Z,29.10
2023-06-20T02:12:52.218Z,29.07
2023-06-20T02:13:52.268Z,29.07
2023-06-20T02:14:52.308Z,29.07
2023-06-20T02:15:52.363Z,29.07
2023-06-20T02:16:52.459Z,29.10
2023-06-20T02:17:52.522Z,29.08
2023-06-20T02:18:52.534Z,29.04
2023-06-20T02:19:52.617Z,29.10
2023-06-20T02:20:53.621Z,29.07
2023-06-20T02:21:52.694Z,29.05
2023-06-20T02:22:52.759Z,29.07
2023-06-20T02:23:52.803Z,29.05
2023-06-20T02:24:52.857Z,29.07
2023-06-20T02:25:52.874Z,29.07
2023-06-20T02:26:52.943Z,29.07
2023-06-20T02:27:52.969Z,29.05
2023-06-20T02:28:53.003Z,29.05
2023-06-20T02:29:53.113Z,29.10
2023-06-20T02:30:53.116Z,29.05
2023-06-20T02:31:53.138Z,29.04
2023-06-20T02:32:53.242Z,29.04
2023-06-20T02:33:53.212Z,29.04
2023-06-20T02:34:53.248Z,29.07
2023-06-20T02:35:53.260Z,29.05
2023-06-20T02:36:53.305Z,29.05
2023-06-20T02:37:53.326Z,29.02
2023-06-20T02:38:53.376Z,29.04
2023-06-20T02:39:53.395Z,29.05
2023-06-20T02:40:53.419Z,29.04
2023-06-20T02:41:53.488Z,29.04
2023-06-20T02:42:53.499Z,29.05
2023-06-20T02:43:53.559Z,29.02
2023-06-20T02:44:53.574Z,29.04
2023-06-20T02:45:53.651Z,29.01
2023-06-20T02:46:53.566Z,29.01
2023-06-20T02:47:53.574Z,29.01
2023-06-20T02:48:53.564Z,29.00
2023-06-20T02:49:53.573Z,29.02
2023-06-20T02:50:53.638Z,29.00
2023-06-20T02:51:53.678Z,29.02
2023-06-20T02:52:53.711Z,29.02
2023-06-20T02:53:53.717Z,29.02
2023-06-20T02:54:53.730Z,29.01
2023-06-20T02:55:53.744Z,29.02
2023-06-20T02:56:53.733Z,29.02
2023-06-20T02:57:53.771Z,29.01
2023-06-20T02:58:53.784Z,29.01
2023-06-20T02:59:53.774Z,29.02
2023-06-20T03:00:53.936Z,29.01
2023-06-20T03:01:53.850Z,29.00
2023-06-20T03:02:53.874Z,29.00
2023-06-20T03:03:53.827Z,29.00
2023-06-20T03:04:53.793Z,29.00
2023-06-20T03:05:53.798Z,28.98
2023-06-20T03:06:53.822Z,28.98
2023-06-20T03:07:53.813Z,28.97
2023-06-20T03:08:53.831Z,28.97
2023-06-20T03:09:53.798Z,28.98
2023-06-20T03:10:53.824Z,28.97
2023-06-20T03:11:53.797Z,29.00
2023-06-20T03:12:53.811Z,28.97
2023-06-20T03:13:53.835Z,28.98
2023-06-20T03:14:53.864Z,28.97
2023-06-20T03:15:53.906Z,28.97
2023-06-20T03:16:53.888Z,28.97
2023-06-20T03:17:53.951Z,28.95
2023-06-20T03:18:53.917Z,28.93
2023-06-20T03:19:53.926Z,28.95
2023-06-20T03:20:53.954Z,28.97
2023-06-20T03:21:53.946Z,28.97
2023-06-20T03:22:53.946Z,28.97
2023-06-20T03:23:53.919Z,28.95
2023-06-20T03:24:53.957Z,28.95
2023-06-20T03:25:53.916Z,28.95
2023-06-20T03:26:53.936Z,28.95
2023-06-20T03:27:53.943Z,28.95
2023-06-20T03:28:53.943Z,28.93
2023-06-20T03:29:53.942Z,28.94
2023-06-20T03:30:53.969Z,28.94
2023-06-20T03:31:53.929Z,28.97
2023-06-20T03:32:53.959Z,28.94
2023-06-20T03:33:53.925Z,28.93
2023-06-20T03:34:53.882Z,28.94
2023-06-20T03:35:53.879Z,28.91
2023-06-20T03:36:53.900Z,28.93
2023-06-20T03:37:53.869Z,28.91
2023-06-20T03:38:53.861Z,28.94
2023-06-20T03:39:53.859Z,28.93
2023-06-20T03:40:53.868Z,28.93
2023-06-20T03:41:53.887Z,28.90
2023-06-20T03:42:53.864Z,28.93
2023-06-20T03:43:53.876Z,28.91
2023-06-20T03:44:53.868Z,28.93
2023-06-20T03:45:53.872Z,28.91
2023-06-20T03:46:53.979Z,28.91
2023-06-20T03:47:53.923Z,28.89
2023-06-20T03:48:53.869Z,28.91
2023-06-20T03:49:53.890Z,28.90
2023-06-20T03:50:53.841Z,28.91
2023-06-20T03:51:53.862Z,28.93
2023-06-20T03:52:53.842Z,28.93
2023-06-20T03:53:53.892Z,28.91
2023-06-20T03:54:53.851Z,28.91
2023-06-20T03:55:53.845Z,28.90
2023-06-20T03:56:53.924Z,28.91
2023-06-20T03:57:53.861Z,28.90
2023-06-20T03:58:53.887Z,28.89
2023-06-20T03:59:53.872Z,28.93
2023-06-20T04:00:53.866Z,28.90
2023-06-20T04:01:53.797Z,28.87
2023-06-20T04:02:53.847Z,28.89
2023-06-20T04:03:53.984Z,28.90
2023-06-20T04:04:53.864Z,28.90
2023-06-20T04:05:53.872Z,28.89
2023-06-20T04:06:53.798Z,28.93
2023-06-20T04:07:53.880Z,28.90
2023-06-20T04:08:53.793Z,28.87
2023-06-20T04:09:53.810Z,28.86
2023-06-20T04:10:53.785Z,28.89
2023-06-20T04:11:53.793Z,28.87
2023-06-20T04:12:53.776Z,28.87
2023-06-20T04:13:53.785Z,28.89
2023-06-20T04:14:53.800Z,28.86
2023-06-20T04:15:53.777Z,28.87
2023-06-20T04:16:53.788Z,28.84
2023-06-20T04:17:53.845Z,28.87
2023-06-20T04:18:53.791Z,28.87
2023-06-20T04:19:53.795Z,28.87
2023-06-20T04:20:53.777Z,28.86
2023-06-20T04:21:53.795Z,28.86
2023-06-20T04:22:53.807Z,28.86
2023-06-20T04:23:53.767Z,28.87
2023-06-20T04:24:53.802Z,28.87
2023-06-20T04:25:53.778Z,28.87
2023-06-20T04:26:53.764Z,28.86
2023-06-20T04:27:53.786Z,28.86
2023-06-20T04:28:53.776Z,28.86
2023-06-20T04:29:53.772Z,28.84
2023-06-20T04:30:53.772Z,28.84
2023-06-20T04:31:53.804Z,28.86
2023-06-20T04:32:53.827Z,28.87
2023-06-20T04:33:53.811Z,28.86
2023-06-20T04:34:53.882Z,28.86
2023-06-20T04:35:53.800Z,28.83
2023-06-20T04:36:53.807Z,28.83
2023-06-20T04:37:53.819Z,28.84
2023-06-20T04:38:53.845Z,28.83
2023-06-20T04:39:53.864Z,28.84
2023-06-20T04:40:53.820Z,28.81
2023-06-20T04:41:53.833Z,28.84
2023-06-20T04:42:53.833Z,28.83
2023-06-20T04:43:53.881Z,28.83
2023-06-20T04:44:53.894Z,28.81
2023-06-20T04:45:53.914Z,28.84
2023-06-20T04:46:53.874Z,28.84
2023-06-20T04:47:54.102Z,28.83
2023-06-20T04:48:53.930Z,28.83
2023-06-20T04:49:54.203Z,28.83
2023-06-20T04:50:53.911Z,28.81
2023-06-20T04:51:53.981Z,28.83
2023-06-20T04:52:53.961Z,28.80
2023-06-20T04:53:54.025Z,28.84
2023-06-20T04:54:54.188Z,28.81
2023-06-20T04:55:54.012Z,28.83
2023-06-20T04:56:53.999Z,28.80
2023-06-20T04:57:54.048Z,28.81
2023-06-20T04:58:54.015Z,28.80
2023-06-20T04:59:54.169Z,28.81
2023-06-20T05:00:54.058Z,28.81
2023-06-20T05:01:54.067Z,28.84
2023-06-20T05:02:54.061Z,28.84
2023-06-20T05:03:54.186Z,28.84
2023-06-20T05:04:54.061Z,28.83
2023-06-20T05:05:54.073Z,28.84
2023-06-20T05:06:54.075Z,28.83
2023-06-20T05:07:54.080Z,28.86
2023-06-20T05:08:54.096Z,28.83
2023-06-20T05:09:54.100Z,28.84
2023-06-20T05:10:54.082Z,28.84
2023-06-20T05:11:54.121Z,28.53
2023-06-20T05:12:54.104Z,28.30
2023-06-20T05:13:54.108Z,28.15
2023-06-20T05:14:54.115Z,28.38
2023-06-20T05:15:54.180Z,28.42
2023-06-20T05:16:54.157Z,28.32
2023-06-20T05:17:54.351Z,28.24
2023-06-20T05:18:54.249Z,28.23
2023-06-20T05:19:54.301Z,28.19
2023-06-20T05:20:54.379Z,28.19
2023-06-20T05:21:54.429Z,27.95
2023-06-20T05:22:54.564Z,27.62
2023-06-20T05:23:54.672Z,27.89
2023-06-20T05:24:54.630Z,27.69
2023-06-20T05:25:54.631Z,27.26
2023-06-20T05:26:54.751Z,27.50
2023-06-20T05:27:54.707Z,27.55
2023-06-20T05:28:54.712Z,27.57
2023-06-20T05:29:54.826Z,27.68
2023-06-20T05:30:54.798Z,27.54
2023-06-20T05:31:55.149Z,27.51
2023-06-20T05:32:55.191Z,27.41
2023-06-20T05:33:54.982Z,27.60
2023-06-20T05:34:55.213Z,27.50
2023-06-20T05:35:55.108Z,27.45
2023-06-20T05:36:55.129Z,27.54
2023-06-20T05:37:55.189Z,27.65
2023-06-20T05:38:55.233Z,27.40
2023-06-20T05:39:57.147Z,27.50
2023-06-20T05:40:55.328Z,27.62
2023-06-20T05:41:55.291Z,27.80
2023-06-20T05:42:55.264Z,27.88
2023-06-20T05:43:55.276Z,27.93
2023-06-20T05:44:55.278Z,27.99
2023-06-20T05:45:55.263Z,28.03
2023-06-20T05:46:55.322Z,28.12
2023-06-20T05:47:55.267Z,28.19
2023-06-20T05:48:55.248Z,28.26
2023-06-20T05:49:55.668Z,28.33
2023-06-20T05:50:55.230Z,28.40
2023-06-20T05:51:55.229Z,28.39
2023-06-20T05:52:55.245Z,28.47
2023-06-20T05:53:55.216Z,28.57
2023-06-20T05:54:55.203Z,28.59
2023-06-20T05:55:55.185Z,28.61
2023-06-20T05:56:55.177Z,28.61
2023-06-20T05:57:55.185Z,28.66
2023-06-20T05:58:55.173Z,28.61
2023-06-20T05:59:55.181Z,28.66
2023-06-20T06:00:55.172Z,28.63
2023-06-20T06:01:58.071Z,28.63
2023-06-20T06:02:55.324Z,28.70
2023-06-20T06:03:55.168Z,28.74
2023-06-20T06:04:55.241Z,28.77
2023-06-20T06:05:55.148Z,28.77
2023-06-20T06:06:55.116Z,28.78
2023-06-20T06:07:55.120Z,28.81
2023-06-20T06:08:55.123Z,28.83
2023-06-20T06:09:55.089Z,28.81
2023-06-20T06:10:55.101Z,28.83
2023-06-20T06:11:55.115Z,28.83
2023-06-20T06:12:55.086Z,28.83
2023-06-20T06:13:55.073Z,28.87
2023-06-20T06:14:55.181Z,28.94
2023-06-20T06:16:00.604Z,28.97
2023-06-20T06:16:56.213Z,28.98
2023-06-20T06:17:55.092Z,29.07
2023-06-20T06:18:55.034Z,29.05
2023-06-20T06:19:55.048Z,29.08
2023-06-20T06:20:55.022Z,29.02
2023-06-20T06:21:55.015Z,29.04
2023-06-20T06:22:55.018Z,29.07
2023-06-20T06:23:55.064Z,29.04
2023-06-20T06:24:54.999Z,29.04
2023-06-20T06:25:54.998Z,29.04
2023-06-20T06:26:55.016Z,29.02
2023-06-20T06:27:56.508Z,29.02
2023-06-20T06:28:54.968Z,29.02
2023-06-20T06:29:54.976Z,29.04
2023-06-20T06:30:55.126Z,29.05
2023-06-20T06:31:54.964Z,28.87
2023-06-20T06:32:55.263Z,28.52
2023-06-20T06:33:54.929Z,28.53
2023-06-20T06:34:54.951Z,28.74
2023-06-20T06:35:54.948Z,28.70
2023-06-20T06:36:54.917Z,28.66
2023-06-20T06:37:55.056Z,28.78
2023-06-20T06:38:54.937Z,28.87
2023-06-20T06:39:54.918Z,28.91
2023-06-20T06:40:54.904Z,28.91
2023-06-20T06:41:54.936Z,28.91
2023-06-20T06:42:55.631Z,28.95
2023-06-20T06:43:54.958Z,28.97
2023-06-20T06:44:54.898Z,28.95
2023-06-20T06:45:54.858Z,29.02
2023-06-20T06:46:54.925Z,29.01
2023-06-20T06:47:54.924Z,29.01
2023-06-20T06:48:54.845Z,29.01
2023-06-20T06:49:54.868Z,29.00
2023-06-20T06:50:54.828Z,29.00
2023-06-20T06:51:54.865Z,29.00
2023-06-20T06:52:54.832Z,28.97
2023-06-20T06:53:54.831Z,28.97
2023-06-20T06:54:54.819Z,29.00
2023-06-20T06:55:54.825Z,29.02
2023-06-20T06:56:54.832Z,29.07
2023-06-20T06:57:54.849Z,28.97
2023-06-20T06:58:54.891Z,29.02
2023-06-20T06:59:54.852Z,28.95
2023-06-20T07:00:54.907Z,28.91
2023-06-20T07:01:54.859Z,29.00
2023-06-20T07:02:54.937Z,29.01
2023-06-20T07:03:54.965Z,29.00
2023-06-20T07:04:54.911Z,29.05
2023-06-20T07:05:54.940Z,29.04
2023-06-20T07:06:54.983Z,29.08
2023-06-20T07:07:55.017Z,29.10
2023-06-20T07:08:55.007Z,28.90
2023-06-20T07:09:55.024Z,28.98
2023-06-20T07:10:55.010Z,28.91
2023-06-20T07:11:55.022Z,28.89
2023-06-20T07:12:55.173Z,28.73
2023-06-20T07:13:55.013Z,28.97
2023-06-20T07:14:55.087Z,28.89
2023-06-20T07:15:55.130Z,28.93
2023-06-20T07:17:05.491Z,28.89
2023-06-20T07:17:56.086Z,28.97
2023-06-20T07:18:55.053Z,28.93
2023-06-20T07:19:55.125Z,28.94
2023-06-20T07:20:55.047Z,29.00
2023-06-20T07:21:55.024Z,28.97
2023-06-20T07:22:55.024Z,28.97
2023-06-20T07:23:55.071Z,29.00
2023-06-20T07:24:57.146Z,29.04
2023-06-20T07:25:55.213Z,28.91
2023-06-20T07:26:55.152Z,28.75
2023-06-20T07:27:55.229Z,29.01
2023-06-20T07:28:55.243Z,28.97
2023-06-20T07:29:56.248Z,29.07
2023-06-20T07:30:55.337Z,29.11
2023-06-20T07:31:55.790Z,29.25
2023-06-20T07:32:55.480Z,29.36
2023-06-20T07:33:55.424Z,29.41
2023-06-20T07:34:55.485Z,29.49
2023-06-20T07:35:55.477Z,29.48
2023-06-20T07:36:55.490Z,29.61
2023-06-20T07:37:55.502Z,29.58
2023-06-20T07:38:55.503Z,29.69
2023-06-20T07:39:55.523Z,29.72
2023-06-20T07:40:55.503Z,29.75
2023-06-20T07:41:55.786Z,29.77
2023-06-20T07:42:55.519Z,29.84
2023-06-20T07:43:55.529Z,29.89
2023-06-20T07:44:55.548Z,29.87
2023-06-20T07:45:55.632Z,29.96
2023-06-20T07:46:55.579Z,29.99
2023-06-20T07:47:55.771Z,29.97
2023-06-20T07:48:55.584Z,30.00
2023-06-20T07:49:55.749Z,29.96
2023-06-20T07:50:55.605Z,29.99
2023-06-20T07:51:55.611Z,29.92
2023-06-20T07:52:55.630Z,29.90
2023-06-20T07:53:55.665Z,29.94
2023-06-20T07:54:55.664Z,29.97
2023-06-20T07:55:55.670Z,29.99
2023-06-20T07:56:55.685Z,30.03
2023-06-20T07:57:55.786Z,30.06
2023-06-20T07:58:55.702Z,30.00
2023-06-20T07:59:55.741Z,29.90
2023-06-20T08:00:55.759Z,29.90
2023-06-20T08:01:55.819Z,29.86
2023-06-20T08:02:55.887Z,29.77
2023-06-20T08:03:55.931Z,29.89
2023-06-20T08:04:55.755Z,29.84
2023-06-20T08:05:55.748Z,29.82
2023-06-20T08:06:55.770Z,29.77
2023-06-20T08:07:55.785Z,29.90
2023-06-20T08:08:55.731Z,29.92
2023-06-20T08:09:55.731Z,29.86
2023-06-20T08:10:55.726Z,29.83
2023-06-20T08:11:55.733Z,29.90
2023-06-20T08:12:55.730Z,29.79
2023-06-20T08:13:55.767Z,29.77
2023-06-20T08:14:55.745Z,29.77
2023-06-20T08:15:55.779Z,29.70
2023-06-20T08:16:55.740Z,29.80
2023-06-20T08:17:55.721Z,29.87
2023-06-20T08:18:55.718Z,29.93
2023-06-20T08:19:55.754Z,30.00
2023-06-20T08:20:55.731Z,30.01
2023-06-20T08:21:55.748Z,29.96
2023-06-20T08:22:55.740Z,29.99
2023-06-20T08:23:55.797Z,30.07
2023-06-20T08:24:56.257Z,30.09
2023-06-20T08:25:55.763Z,30.13
2023-06-20T08:26:55.769Z,30.13
2023-06-20T08:28:06.255Z,30.09
2023-06-20T08:28:56.772Z,30.07
2023-06-20T08:29:55.775Z,29.99
2023-06-20T08:30:55.778Z,30.03
2023-06-20T08:31:55.708Z,30.01
2023-06-20T08:32:55.770Z,30.06
2023-06-20T08:33:55.711Z,30.10
2023-06-20T08:34:57.277Z,30.09
2023-06-20T08:35:55.691Z,29.82
2023-06-20T08:36:55.685Z,29.84
2023-06-20T08:37:55.680Z,29.92
2023-06-20T08:38:55.705Z,29.83
2023-06-20T08:39:55.745Z,30.11
2023-06-20T08:40:55.670Z,30.19
2023-06-20T08:41:55.668Z,30.13
2023-06-20T08:42:55.654Z,30.11
2023-06-20T08:43:55.626Z,30.20
2023-06-20T08:44:57.921Z,30.13
2023-06-20T08:45:55.660Z,30.11
2023-06-20T08:46:55.660Z,30.13
2023-06-20T08:47:55.610Z,30.23
2023-06-20T08:48:55.621Z,30.33
2023-06-20T08:49:55.769Z,30.31
2023-06-20T08:50:55.598Z,30.34
2023-06-20T08:51:55.586Z,30.38
2023-06-20T08:52:55.581Z,30.35
2023-06-20T08:53:55.569Z,30.37
2023-06-20T08:54:55.779Z,30.44
2023-06-20T08:55:55.560Z,30.55
2023-06-20T08:56:55.568Z,30.45
2023-06-20T08:57:55.599Z,30.42
2023-06-20T08:58:55.554Z,30.44
2023-06-20T08:59:55.764Z,30.52
2023-06-20T09:00:55.606Z,30.54
2023-06-20T09:01:55.875Z,30.54
2023-06-20T09:02:55.586Z,30.55
2023-06-20T09:03:55.529Z,30.57
2023-06-20T09:04:55.790Z,30.50
2023-06-20T09:05:55.482Z,30.61
2023-06-20T09:06:55.497Z,30.60
2023-06-20T09:07:55.493Z,30.48
2023-06-20T09:08:55.528Z,30.58
2023-06-20T09:09:55.766Z,30.58
2023-06-20T09:10:55.502Z,30.62
2023-06-20T09:11:55.492Z,30.67
2023-06-20T09:12:55.466Z,30.75
2023-06-20T09:13:55.458Z,30.77
2023-06-20T09:14:55.464Z,30.72
2023-06-20T09:15:55.781Z,30.68
2023-06-20T09:16:55.481Z,30.62
2023-06-20T09:17:55.459Z,30.58
2023-06-20T09:18:55.418Z,30.60
2023-06-20T09:19:57.271Z,30.65
2023-06-20T09:20:55.390Z,30.74
2023-06-20T09:22:08.447Z,30.70
2023-06-20T09:22:56.814Z,30.71
2023-06-20T09:23:55.436Z,30.77
2023-06-20T09:24:55.365Z,30.79
2023-06-20T09:25:55.373Z,30.54
2023-06-20T09:26:55.343Z,30.57
2023-06-20T09:27:55.774Z,30.55
2023-06-20T09:28:55.365Z,30.67
2023-06-20T09:29:55.841Z,30.48
2023-06-20T09:30:55.366Z,30.45
2023-06-20T09:31:55.344Z,30.70
2023-06-20T09:32:55.449Z,30.86
2023-06-20T09:33:55.352Z,30.85
2023-06-20T09:34:55.801Z,30.92
2023-06-20T09:35:55.313Z,31.01
2023-06-20T09:36:55.286Z,31.02
2023-06-20T09:37:55.300Z,31.01
2023-06-20T09:38:55.280Z,31.06
2023-06-20T09:39:55.277Z,31.09
2023-06-20T09:40:55.253Z,31.06
2023-06-20T09:41:55.251Z,31.12
2023-06-20T09:42:55.250Z,31.15
2023-06-20T09:43:55.262Z,31.16
2023-06-20T09:44:55.266Z,31.15
2023-06-20T09:45:55.269Z,31.16
2023-06-20T09:46:55.226Z,31.18
2023-06-20T09:47:55.323Z,31.15
2023-06-20T09:48:55.238Z,31.13
2023-06-20T09:49:55.215Z,31.15
2023-06-20T09:50:55.195Z,31.16
2023-06-20T09:51:55.178Z,31.13
2023-06-20T09:52:55.190Z,31.19
2023-06-20T09:53:55.173Z,31.20
2023-06-20T09:54:55.335Z,31.20
2023-06-20T09:55:55.160Z,31.16
2023-06-20T09:56:55.160Z,31.16
2023-06-20T09:57:55.173Z,31.12
2023-06-20T09:58:55.192Z,31.01
2023-06-20T09:59:55.180Z,31.16
2023-06-20T10:00:55.165Z,31.20
2023-06-20T10:01:56.956Z,31.18
2023-06-20T10:02:55.214Z,31.18
2023-06-20T10:03:55.200Z,31.16
2023-06-20T10:04:55.217Z,31.22
2023-06-20T10:05:55.191Z,31.20
2023-06-20T10:06:55.196Z,31.23
2023-06-20T10:07:55.802Z,31.22
2023-06-20T10:08:55.195Z,31.23
2023-06-20T10:09:55.188Z,31.26
2023-06-20T10:10:55.199Z,31.23
2023-06-20T10:11:55.215Z,31.26
2023-06-20T10:12:55.185Z,31.26
2023-06-20T10:13:55.211Z,31.13
2023-06-20T10:14:55.236Z,31.02
2023-06-20T10:15:55.179Z,31.05
2023-06-20T10:16:55.196Z,31.05
2023-06-20T10:17:55.334Z,31.06
2023-06-20T10:18:55.302Z,31.03
2023-06-20T10:19:55.200Z,31.03
2023-06-20T10:20:55.184Z,31.05
2023-06-20T10:21:55.258Z,30.95
2023-06-20T10:22:55.184Z,30.88
2023-06-20T10:23:55.266Z,30.93
2023-06-20T10:24:55.246Z,30.95
2023-06-20T10:25:55.194Z,31.03
2023-06-20T10:26:55.233Z,31.08
2023-06-20T10:27:55.209Z,31.09
2023-06-20T10:28:55.228Z,31.08
2023-06-20T10:29:55.235Z,31.05
2023-06-20T10:30:55.246Z,31.02
2023-06-20T10:31:55.402Z,31.01
2023-06-20T10:32:55.263Z,30.99
2023-06-20T10:33:55.262Z,30.98
2023-06-20T10:34:55.248Z,30.96
2023-06-20T10:35:55.276Z,30.95
2023-06-20T10:36:55.293Z,30.93
2023-06-20T10:37:55.350Z,30.89
2023-06-20T10:38:55.337Z,30.89
2023-06-20T10:39:55.334Z,30.88
2023-06-20T10:40:55.367Z,30.85
2023-06-20T10:41:55.388Z,30.86
2023-06-20T10:42:55.411Z,30.86
2023-06-20T10:43:55.417Z,30.86
2023-06-20T10:44:55.829Z,30.82
2023-06-20T10:45:55.504Z,30.83
2023-06-20T10:46:55.453Z,30.85
2023-06-20T10:47:55.544Z,30.83
2023-06-20T10:48:55.492Z,30.83
2023-06-20T10:49:55.537Z,30.82
2023-06-20T10:50:55.539Z,30.85
2023-06-20T10:51:55.582Z,30.81
2023-06-20T10:52:55.621Z,30.78
2023-06-20T10:53:55.658Z,30.79
2023-06-20T10:54:55.687Z,30.78
2023-06-20T10:55:55.691Z,30.79
2023-06-20T10:56:55.701Z,30.78
2023-06-20T10:57:55.720Z,30.78
2023-06-20T10:58:55.766Z,30.78
2023-06-20T10:59:55.809Z,30.77
2023-06-20T11:00:55.835Z,30.75
2023-06-20T11:01:55.942Z,30.74
2023-06-20T11:02:56.105Z,30.75
2023-06-20T11:03:55.931Z,30.77
2023-06-20T11:04:56.345Z,30.74
2023-06-20T11:05:55.978Z,30.77
2023-06-20T11:06:55.991Z,30.72
2023-06-20T11:07:56.024Z,30.75
2023-06-20T11:08:56.122Z,30.77
2023-06-20T11:09:56.346Z,30.74
2023-06-20T11:10:56.321Z,30.72
2023-06-20T11:11:56.175Z,30.74
2023-06-20T11:12:56.160Z,30.74
2023-06-20T11:13:56.178Z,30.74
2023-06-20T11:14:56.371Z,30.74
2023-06-20T11:15:56.257Z,30.58
2023-06-20T11:16:56.288Z,30.74
2023-06-20T11:17:56.522Z,30.81
2023-06-20T11:18:56.639Z,30.88
2023-06-20T11:19:56.472Z,30.89
2023-06-20T11:20:56.379Z,30.86
2023-06-20T11:21:56.417Z,30.83
2023-06-20T11:22:56.422Z,30.78
2023-06-20T11:23:56.461Z,30.79
2023-06-20T11:24:56.548Z,30.81
2023-06-20T11:25:59.050Z,30.75
2023-06-20T11:26:56.507Z,30.75
2023-06-20T11:27:56.527Z,30.72
2023-06-20T11:29:09.869Z,30.71
2023-06-20T11:29:57.473Z,30.72
2023-06-20T11:30:56.539Z,30.74
2023-06-20T11:31:56.521Z,30.72
2023-06-20T11:32:56.495Z,30.77
2023-06-20T11:33:56.461Z,30.72
2023-06-20T11:34:56.494Z,30.75
2023-06-20T11:35:56.466Z,30.75
2023-06-20T11:36:56.458Z,30.75
2023-06-20T11:37:56.532Z,30.77
2023-06-20T11:38:56.479Z,30.75
2023-06-20T11:39:56.457Z,30.75
2023-06-20T11:40:56.473Z,30.75
2023-06-20T11:41:57.374Z,30.75
2023-06-20T11:42:56.420Z,30.74
2023-06-20T11:43:56.400Z,30.75
2023-06-20T11:44:56.412Z,30.74
2023-06-20T11:45:57.370Z,30.75
2023-06-20T11:46:56.542Z,30.74
2023-06-20T11:47:56.543Z,30.74
2023-06-20T11:48:56.568Z,30.74
2023-06-20T11:49:56.577Z,30.75
2023-06-20T11:50:56.640Z,30.74
2023-06-20T11:51:56.644Z,30.75
2023-06-20T11:52:56.689Z,30.72
2023-06-20T11:53:56.698Z,30.72
2023-06-20T11:54:56.770Z,30.72
2023-06-20T11:56:00.276Z,30.72
2023-06-20T11:56:56.808Z,30.70
2023-06-20T11:57:56.782Z,30.70
2023-06-20T11:58:56.792Z,30.72
2023-06-20T11:59:56.763Z,30.72
2023-06-20T12:00:56.726Z,30.62
2023-06-20T12:01:56.781Z,30.70
2023-06-20T12:02:56.782Z,30.71
2023-06-20T12:03:56.778Z,30.72
2023-06-20T12:04:56.763Z,30.75
2023-06-20T12:05:56.738Z,30.89
2023-06-20T12:06:56.724Z,30.91
2023-06-20T12:07:56.702Z,30.78
2023-06-20T12:08:56.741Z,30.68
2023-06-20T12:09:56.694Z,30.72
2023-06-20T12:10:56.725Z,30.71
2023-06-20T12:11:56.699Z,30.71
2023-06-20T12:12:56.687Z,30.74
2023-06-20T12:13:56.673Z,30.77
2023-06-20T12:14:56.670Z,30.78
2023-06-20T12:15:56.665Z,30.78
2023-06-20T12:16:56.667Z,30.79
2023-06-20T12:17:56.734Z,30.83
2023-06-20T12:18:56.670Z,30.83
2023-06-20T12:19:56.686Z,30.82
2023-06-20T12:21:03.286Z,30.83
2023-06-20T12:21:57.627Z,30.85
2023-06-20T12:22:56.658Z,30.85
2023-06-20T12:23:56.668Z,30.89
2023-06-20T12:24:56.641Z,30.88
2023-06-20T12:25:56.600Z,30.88
2023-06-20T12:26:56.608Z,30.92
2023-06-20T12:27:56.627Z,30.95
2023-06-20T12:28:56.610Z,30.91
2023-06-20T12:29:56.564Z,30.92
2023-06-20T12:30:56.612Z,30.96
2023-06-20T12:31:56.618Z,30.93
2023-06-20T12:32:56.755Z,30.96
2023-06-20T12:33:56.696Z,30.98
2023-06-20T12:34:56.915Z,30.96
2023-06-20T12:35:56.575Z,30.98
2023-06-20T12:36:56.559Z,30.99
2023-06-20T12:37:56.586Z,31.01
2023-06-20T12:38:56.539Z,30.98
2023-06-20T12:39:56.565Z,30.99
2023-06-20T12:40:56.574Z,31.02
2023-06-20T12:41:56.504Z,30.98
2023-06-20T12:42:56.582Z,30.96
2023-06-20T12:43:56.540Z,30.99
2023-06-20T12:44:56.541Z,30.95
2023-06-20T12:45:56.635Z,30.93
2023-06-20T12:46:56.530Z,30.95
2023-06-20T12:47:56.642Z,30.92
2023-06-20T12:48:56.535Z,30.91
2023-06-20T12:49:56.559Z,30.91
2023-06-20T12:50:56.526Z,30.88
2023-06-20T12:51:56.515Z,30.88
2023-06-20T12:52:56.511Z,30.85